Time;durP1;ratioP1;P1;durP2;ratioP2;P2;SDS_P1;SDS_P2;PMS_P1;PMS_P2;Temp;Humidity;BMP_temperature;BMP_pressure;BME280_temperature;BME280_humidity;BME280_pressure;Samples;Min_cycle;Max_cycle;Signal;HPM_P1;HPM_P2
2021/04/07 00:01:20;;;;;;;4.67;2.33;;;;;;;;;;5118474;28;20451;-79
2021/04/07 00:03:47;;;;;;;4.67;2.07;;;;;;;;;;5118790;27;20549;-79
2021/04/07 00:06:14;;;;;;;1.90;1.80;;;;;;;;;;5119136;28;20494;-78
2021/04/07 00:08:46;;;;;;;2.10;1.73;;;;;;;;;;5118698;28;20516;-80
2021/04/07 00:11:14;;;;;;;3.67;1.80;;;;;;;;;;5118309;28;20838;-80
2021/04/07 00:13:41;;;;;;;2.43;1.90;;;;;;;;;;5118487;28;20529;-79
2021/04/07 00:16:08;;;;;;;2.47;2.20;;;;;;;;;;5117882;28;21049;-78
2021/04/07 00:18:36;;;;;;;2.23;1.73;;;;;;;;;;5118346;28;20283;-79
2021/04/07 00:21:04;;;;;;;3.20;1.97;;;;;;;;;;5118536;28;20478;-79
2021/04/07 00:23:31;;;;;;;3.47;2.23;;;;;;;;;;5118350;28;20235;-79
2021/04/07 00:25:58;;;;;;;4.83;2.00;;;;;;;;;;5118371;28;20530;-78
2021/04/07 00:28:25;;;;;;;2.67;1.80;;;;;;;;;;5118072;28;20978;-78
2021/04/07 00:30:52;;;;;;;5.03;1.90;;;;;;;;;;5118231;28;20442;-78
2021/04/07 00:33:19;;;;;;;3.07;2.13;;;;;;;;;;5118122;28;20481;-78
2021/04/07 00:35:47;;;;;;;2.30;1.47;;;;;;;;;;5118205;28;20479;-78
2021/04/07 00:38:14;;;;;;;2.13;1.60;;;;;;;;;;5118474;28;20977;-78
2021/04/07 00:40:41;;;;;;;1.70;1.30;;;;;;;;;;5118002;28;20530;-78
2021/04/07 00:43:08;;;;;;;1.83;1.53;;;;;;;;;;5118058;28;20455;-79
2021/04/07 00:45:35;;;;;;;1.90;1.70;;;;;;;;;;5118216;28;20550;-78
2021/04/07 00:48:03;;;;;;;1.77;1.50;;;;;;;;;;5116512;28;20561;-78
2021/04/07 00:50:31;;;;;;;3.37;1.30;;;;;;;;;;5116003;28;20438;-78
2021/04/07 00:52:59;;;;;;;2.70;1.60;;;;;;;;;;5122196;28;20470;-78
2021/04/07 00:55:28;;;;;;;4.07;2.27;;;;;;;;;;5121901;28;20511;-78
2021/04/07 00:57:56;;;;;;;6.00;1.80;;;;;;;;;;5122026;28;20211;-79
2021/04/07 01:00:23;;;;;;;1.50;1.40;;;;;;;;;;5122169;28;20228;-78
2021/04/07 01:02:52;;;;;;;3.53;1.37;;;;;;;;;;5121642;28;20655;-80
2021/04/07 01:05:20;;;;;;;2.13;1.13;;;;;;;;;;5121890;28;20240;-78
2021/04/07 01:07:47;;;;;;;2.43;1.40;;;;;;;;;;5121736;27;20232;-79
2021/04/07 01:10:15;;;;;;;3.40;1.70;;;;;;;;;;5121917;28;20431;-79
2021/04/07 01:12:43;;;;;;;3.17;1.30;;;;;;;;;;5121746;28;20442;-79
2021/04/07 01:15:11;;;;;;;1.50;1.40;;;;;;;;;;5121841;28;20555;-78
2021/04/07 01:17:39;;;;;;;1.73;1.20;;;;;;;;;;5121187;28;20958;-78
2021/04/07 01:20:07;;;;;;;2.00;1.27;;;;;;;;;;5121685;28;20483;-78
2021/04/07 01:22:35;;;;;;;2.50;1.27;;;;;;;;;;5121605;28;20892;-78
2021/04/07 01:25:04;;;;;;;1.47;1.10;;;;;;;;;;5121417;28;20578;-79
2021/04/07 01:27:32;;;;;;;1.73;1.20;;;;;;;;;;5121353;28;20529;-78
2021/04/07 01:29:59;;;;;;;2.53;1.10;;;;;;;;;;5121686;28;20474;-78
2021/04/07 01:32:26;;;;;;;2.20;1.20;;;;;;;;;;5121060;28;21016;-78
2021/04/07 01:34:53;;;;;;;2.03;1.37;;;;;;;;;;5121554;28;20526;-78
2021/04/07 01:37:20;;;;;;;2.50;1.37;;;;;;;;;;5121950;28;20442;-79
2021/04/07 01:39:47;;;;;;;1.27;1.17;;;;;;;;;;5121543;28;20443;-79
2021/04/07 01:42:14;;;;;;;2.63;1.33;;;;;;;;;;5121388;27;20442;-78
2021/04/07 01:44:42;;;;;;;2.43;1.50;;;;;;;;;;5121457;28;20549;-78
2021/04/07 01:47:09;;;;;;;1.67;1.10;;;;;;;;;;5121008;28;20530;-78
2021/04/07 01:49:36;;;;;;;1.20;1.10;;;;;;;;;;5121062;28;20489;-79
2021/04/07 01:52:03;;;;;;;1.33;1.13;;;;;;;;;;5121055;28;20525;-78
2021/04/07 01:54:30;;;;;;;1.30;1.10;;;;;;;;;;5120955;28;20541;-79
2021/04/07 01:56:58;;;;;;;2.23;1.23;;;;;;;;;;5121136;28;20506;-78
2021/04/07 01:59:28;;;;;;;2.47;1.00;;;;;;;;;;5121185;28;20987;-79
2021/04/07 02:01:57;;;;;;;2.73;1.10;;;;;;;;;;5120670;28;20503;-79
2021/04/07 02:04:25;;;;;;;1.77;1.13;;;;;;;;;;5120087;28;20478;-78
2021/04/07 02:06:55;;;;;;;1.47;1.20;;;;;;;;;;5117569;28;20209;-78
2021/04/07 02:09:22;;;;;;;1.20;1.00;;;;;;;;;;5111127;28;20993;-77
2021/04/07 02:11:50;;;;;;;2.53;1.17;;;;;;;;;;5106146;28;20543;-78
2021/04/07 02:14:18;;;;;;;3.77;1.20;;;;;;;;;;5107833;28;20546;-77
2021/04/07 02:16:49;;;;;;;1.80;1.00;;;;;;;;;;5107514;28;20473;-77
2021/04/07 02:19:16;;;;;;;0.87;0.87;;;;;;;;;;5110301;28;20462;-77
2021/04/07 02:21:43;;;;;;;3.00;1.30;;;;;;;;;;5107805;28;20491;-77
2021/04/07 02:24:11;;;;;;;1.33;0.93;;;;;;;;;;5105426;28;20474;-77
2021/04/07 02:26:38;;;;;;;2.20;1.10;;;;;;;;;;5109356;28;20968;-77
2021/04/07 02:29:05;;;;;;;3.20;1.33;;;;;;;;;;5104408;28;20896;-77
2021/04/07 02:31:32;;;;;;;3.90;1.70;;;;;;;;;;5106681;28;20517;-77
2021/04/07 02:34:00;;;;;;;2.77;1.40;;;;;;;;;;5109597;28;20455;-77
2021/04/07 02:36:27;;;;;;;2.40;1.30;;;;;;;;;;5109311;28;20458;-77
2021/04/07 02:38:53;;;;;;;1.60;1.10;;;;;;;;;;5104115;28;20974;-77
2021/04/07 02:41:20;;;;;;;1.20;1.03;;;;;;;;;;5109824;28;20469;-77
2021/04/07 02:43:48;;;;;;;1.37;1.17;;;;;;;;;;5104433;28;20467;-77
2021/04/07 02:46:15;;;;;;;1.57;1.17;;;;;;;;;;5109303;28;20511;-77
2021/04/07 02:48:42;;;;;;;2.63;1.17;;;;;;;;;;5104925;28;20554;-77
2021/04/07 02:51:10;;;;;;;1.30;1.00;;;;;;;;;;5106869;28;20459;-76
2021/04/07 02:53:37;;;;;;;1.63;1.30;;;;;;;;;;5106068;28;20530;-77
2021/04/07 02:56:04;;;;;;;3.03;1.37;;;;;;;;;;5105785;28;21076;-77
2021/04/07 02:58:31;;;;;;;1.60;1.10;;;;;;;;;;5104373;28;20467;-77
2021/04/07 03:00:59;;;;;;;1.23;1.13;;;;;;;;;;5105726;28;20523;-77
2021/04/07 03:03:26;;;;;;;3.10;1.30;;;;;;;;;;5105293;28;20523;-77
2021/04/07 03:05:53;;;;;;;4.93;1.30;;;;;;;;;;5106382;28;20452;-77
2021/04/07 03:08:21;;;;;;;3.07;1.17;;;;;;;;;;5104358;28;21074;-77
2021/04/07 03:10:48;;;;;;;1.90;1.33;;;;;;;;;;5104578;27;20438;-77
2021/04/07 03:13:15;;;;;;;1.57;1.00;;;;;;;;;;5104282;28;20502;-77
2021/04/07 03:15:42;;;;;;;2.13;1.00;;;;;;;;;;5103872;28;20506;-77
2021/04/07 03:18:09;;;;;;;1.90;1.20;;;;;;;;;;5108897;28;20443;-77
2021/04/07 03:20:36;;;;;;;3.50;1.20;;;;;;;;;;5107402;28;20438;-78
2021/04/07 03:23:03;;;;;;;2.80;1.23;;;;;;;;;;5118083;28;20471;-77
2021/04/07 03:25:31;;;;;;;1.93;1.30;;;;;;;;;;5117754;28;20534;-77
2021/04/07 03:27:58;;;;;;;3.17;1.37;;;;;;;;;;5117262;28;21077;-76
2021/04/07 03:30:25;;;;;;;3.43;1.33;;;;;;;;;;5117397;28;20505;-77
2021/04/07 03:32:52;;;;;;;1.30;1.20;;;;;;;;;;5117217;28;20447;-77
2021/04/07 03:35:19;;;;;;;2.87;1.10;;;;;;;;;;5117254;28;20550;-77
2021/04/07 03:37:46;;;;;;;3.17;1.70;;;;;;;;;;5117548;28;20526;-77
2021/04/07 03:40:14;;;;;;;2.83;1.03;;;;;;;;;;5117389;27;20485;-77
2021/04/07 03:42:43;;;;;;;2.87;1.10;;;;;;;;;;5118608;28;20475;-77
2021/04/07 03:45:10;;;;;;;2.03;1.30;;;;;;;;;;5118739;28;20553;-77
2021/04/07 03:47:37;;;;;;;3.30;1.50;;;;;;;;;;5108930;28;20502;-76
2021/04/07 03:50:04;;;;;;;2.13;1.30;;;;;;;;;;5118940;28;20478;-77
2021/04/07 03:52:31;;;;;;;2.23;1.40;;;;;;;;;;5119001;28;20478;-77
2021/04/07 03:54:59;;;;;;;1.70;1.17;;;;;;;;;;5118834;28;20473;-77
2021/04/07 03:57:27;;;;;;;1.60;1.50;;;;;;;;;;5118593;28;20529;-77
2021/04/07 03:59:55;;;;;;;3.50;1.40;;;;;;;;;;5118846;28;20506;-77
2021/04/07 04:02:22;;;;;;;2.40;1.47;;;;;;;;;;5118607;28;20527;-77
2021/04/07 04:04:49;;;;;;;2.50;1.40;;;;;;;;;;5118455;28;20467;-77
2021/04/07 04:07:16;;;;;;;1.40;1.30;;;;;;;;;;5119038;27;20461;-77
2021/04/07 04:09:43;;;;;;;4.83;1.30;;;;;;;;;;5118634;28;21052;-77
2021/04/07 04:12:10;;;;;;;3.80;1.83;;;;;;;;;;5118743;28;20474;-77
2021/04/07 04:14:37;;;;;;;1.20;1.20;;;;;;;;;;5118548;28;20471;-77
2021/04/07 04:17:05;;;;;;;1.63;1.37;;;;;;;;;;5118610;28;20468;-77
2021/04/07 04:19:32;;;;;;;1.87;1.50;;;;;;;;;;5118379;27;20443;-77
2021/04/07 04:22:01;;;;;;;2.60;1.20;;;;;;;;;;5118630;28;20529;-77
2021/04/07 04:24:28;;;;;;;2.73;1.80;;;;;;;;;;5118083;28;20529;-77
2021/04/07 04:26:55;;;;;;;2.53;1.83;;;;;;;;;;5118149;28;20530;-77
2021/04/07 04:29:22;;;;;;;3.40;1.50;;;;;;;;;;5118481;28;20470;-77
2021/04/07 04:31:49;;;;;;;1.60;1.50;;;;;;;;;;5118340;28;20464;-77
2021/04/07 04:34:17;;;;;;;4.17;1.67;;;;;;;;;;5118088;28;20830;-77
2021/04/07 04:36:44;;;;;;;1.70;1.43;;;;;;;;;;5118135;28;20529;-77
2021/04/07 04:39:11;;;;;;;2.20;1.40;;;;;;;;;;5118844;28;20502;-77
2021/04/07 04:41:38;;;;;;;1.73;1.53;;;;;;;;;;5118003;28;20535;-77
2021/04/07 04:44:05;;;;;;;3.23;1.80;;;;;;;;;;5118380;28;20546;-77
2021/04/07 04:46:32;;;;;;;1.80;1.43;;;;;;;;;;5118190;28;20470;-77
2021/04/07 04:48:59;;;;;;;3.53;1.57;;;;;;;;;;5118334;28;20478;-77
2021/04/07 04:51:27;;;;;;;5.10;1.67;;;;;;;;;;5118015;28;20446;-77
2021/04/07 04:53:55;;;;;;;4.47;1.63;;;;;;;;;;5118313;28;20989;-77
2021/04/07 04:56:22;;;;;;;1.53;1.30;;;;;;;;;;5117769;28;20890;-77
2021/04/07 04:58:48;;;;;;;2.67;1.60;;;;;;;;;;5118213;28;20471;-77
2021/04/07 05:01:16;;;;;;;2.90;1.80;;;;;;;;;;5117818;28;20847;-77
2021/04/07 05:03:43;;;;;;;4.50;2.07;;;;;;;;;;5118293;28;20447;-77
2021/04/07 05:06:10;;;;;;;3.27;1.93;;;;;;;;;;5118142;28;20469;-78
2021/04/07 05:08:37;;;;;;;1.67;1.57;;;;;;;;;;5118370;28;20474;-77
2021/04/07 05:11:05;;;;;;;2.13;1.43;;;;;;;;;;5118257;28;20435;-77
2021/04/07 05:13:32;;;;;;;2.07;1.63;;;;;;;;;;5118177;28;20557;-77
2021/04/07 05:15:59;;;;;;;3.33;1.30;;;;;;;;;;5117709;28;20486;-77
2021/04/07 05:18:27;;;;;;;3.67;2.10;;;;;;;;;;5118273;28;20521;-77
2021/04/07 05:20:54;;;;;;;1.87;1.60;;;;;;;;;;5118232;28;20521;-77
2021/04/07 05:23:21;;;;;;;2.73;1.67;;;;;;;;;;5117814;28;20565;-77
2021/04/07 05:25:49;;;;;;;1.97;1.80;;;;;;;;;;5117661;28;20861;-77
2021/04/07 05:28:16;;;;;;;1.60;1.50;;;;;;;;;;5118165;28;20449;-77
2021/04/07 05:31:01;;;;;;;3.10;1.50;;;;;;;;;;5117474;28;20573;-77
2021/04/07 05:33:30;;;;;;;4.30;1.73;;;;;;;;;;5117987;28;20451;-77
2021/04/07 05:35:57;;;;;;;2.50;1.70;;;;;;;;;;5118103;28;20527;-77
2021/04/07 05:38:24;;;;;;;2.20;1.80;;;;;;;;;;5119285;28;21018;-77
2021/04/07 05:40:53;;;;;;;3.40;2.20;;;;;;;;;;5121864;28;20470;-77
2021/04/07 05:43:20;;;;;;;2.13;1.80;;;;;;;;;;5121301;28;20535;-76
2021/04/07 05:45:47;;;;;;;3.43;1.80;;;;;;;;;;5120965;28;20533;-78
2021/04/07 05:48:14;;;;;;;2.03;1.83;;;;;;;;;;5121332;28;20479;-79
2021/04/07 05:50:42;;;;;;;3.30;2.20;;;;;;;;;;5121343;28;20485;-79
2021/04/07 05:53:09;;;;;;;4.53;2.17;;;;;;;;;;5121122;28;20510;-79
2021/04/07 05:55:37;;;;;;;2.93;1.60;;;;;;;;;;5120967;28;20462;-79
2021/04/07 05:58:05;;;;;;;3.90;1.93;;;;;;;;;;5120806;28;20526;-76
2021/04/07 06:00:33;;;;;;;4.33;1.53;;;;;;;;;;5121044;28;20530;-76
2021/04/07 06:03:01;;;;;;;4.47;2.13;;;;;;;;;;5120849;27;20550;-78
2021/04/07 06:05:28;;;;;;;5.10;2.07;;;;;;;;;;5120102;28;20490;-75
2021/04/07 06:07:56;;;;;;;2.47;1.70;;;;;;;;;;5119743;27;20477;-74
2021/04/07 06:10:24;;;;;;;2.53;2.10;;;;;;;;;;5120041;28;20470;-75
2021/04/07 06:12:51;;;;;;;5.53;1.83;;;;;;;;;;5122110;27;20992;-75
2021/04/07 06:15:20;;;;;;;3.30;2.00;;;;;;;;;;5120713;28;20518;-75
2021/04/07 06:17:53;;;;;;;3.33;1.90;;;;;;;;;;5118785;28;20461;-82
2021/04/07 06:20:21;;;;;;;2.03;1.83;;;;;;;;;;5122077;27;20442;-78
2021/04/07 06:22:48;;;;;;;4.20;2.10;;;;;;;;;;5122554;27;20980;-78
2021/04/07 06:25:15;;;;;;;4.40;1.70;;;;;;;;;;5120170;28;20909;-78
2021/04/07 06:27:42;;;;;;;7.67;2.50;;;;;;;;;;5120088;28;20450;-78
2021/04/07 06:30:10;;;;;;;1.97;1.73;;;;;;;;;;5120293;28;20482;-79
2021/04/07 06:32:38;;;;;;;3.97;2.23;;;;;;;;;;5120129;28;20465;-78
2021/04/07 06:35:05;;;;;;;2.13;1.93;;;;;;;;;;5120333;28;20499;-79
2021/04/07 06:37:32;;;;;;;5.03;2.43;;;;;;;;;;5120130;28;20884;-79
2021/04/07 06:39:59;;;;;;;4.33;2.20;;;;;;;;;;5120050;28;20502;-79
2021/04/07 06:42:27;;;;;;;4.57;1.80;;;;;;;;;;5120017;28;20534;-79
2021/04/07 06:44:57;;;;;;;2.87;1.90;;;;;;;;;;5119957;28;21011;-78
2021/04/07 06:47:25;;;;;;;4.90;2.73;;;;;;;;;;5118776;28;20443;-79
2021/04/07 06:49:54;;;;;;;5.90;2.40;;;;;;;;;;5107237;28;20478;-79
2021/04/07 06:52:21;;;;;;;4.10;2.20;;;;;;;;;;5108244;28;20492;-78
2021/04/07 06:54:51;;;;;;;4.83;2.33;;;;;;;;;;5105073;28;20546;-77
2021/04/07 06:57:18;;;;;;;5.73;2.53;;;;;;;;;;5107691;28;20605;-74
2021/04/07 06:59:45;;;;;;;5.00;2.50;;;;;;;;;;5107498;28;20474;-75
2021/04/07 07:02:13;;;;;;;8.17;2.73;;;;;;;;;;5112312;28;20491;-74
2021/04/07 07:04:40;;;;;;;4.10;2.40;;;;;;;;;;5119513;28;20467;-74
2021/04/07 07:07:08;;;;;;;2.47;2.27;;;;;;;;;;5119551;28;20834;-75
2021/04/07 07:09:35;;;;;;;7.57;2.73;;;;;;;;;;5119400;28;20561;-75
2021/04/07 07:12:03;;;;;;;2.67;2.27;;;;;;;;;;5119598;28;20549;-79
2021/04/07 07:14:31;;;;;;;2.70;2.40;;;;;;;;;;5119458;28;20450;-80
2021/04/07 07:16:58;;;;;;;7.37;2.73;;;;;;;;;;5119345;28;20466;-78
2021/04/07 07:19:26;;;;;;;3.87;2.70;;;;;;;;;;5119430;28;20443;-79
2021/04/07 07:21:53;;;;;;;2.80;2.13;;;;;;;;;;5119349;28;20474;-79
2021/04/07 07:24:31;;;;;;;4.13;2.30;;;;;;;;;;5119065;27;20504;-80
2021/04/07 07:26:58;;;;;;;4.03;2.57;;;;;;;;;;5119395;28;20525;-80
2021/04/07 07:29:26;;;;;;;3.27;2.60;;;;;;;;;;5119345;28;20560;-81
2021/04/07 07:32:00;;;;;;;3.70;2.70;;;;;;;;;;5118876;28;20869;-80
2021/04/07 07:34:28;;;;;;;4.67;2.83;;;;;;;;;;5118960;28;20905;-79
2021/04/07 07:36:55;;;;;;;4.13;2.70;;;;;;;;;;5119485;28;20525;-81
2021/04/07 07:39:25;;;;;;;6.80;2.57;;;;;;;;;;5119218;27;20481;-80
2021/04/07 07:41:57;;;;;;;3.40;2.47;;;;;;;;;;5119094;28;20530;-81
2021/04/07 07:44:24;;;;;;;2.67;2.47;;;;;;;;;;5118853;28;20551;-81
2021/04/07 07:47:02;;;;;;;6.37;2.50;;;;;;;;;;5118468;28;20443;-79
2021/04/07 07:49:30;;;;;;;4.70;2.40;;;;;;;;;;5118850;27;20510;-80
2021/04/07 07:51:57;;;;;;;3.60;2.50;;;;;;;;;;5118978;28;20466;-80
2021/04/07 07:54:25;;;;;;;5.33;2.80;;;;;;;;;;5118603;28;20515;-80
2021/04/07 07:56:53;;;;;;;2.73;2.50;;;;;;;;;;5118746;28;20522;-81
2021/04/07 07:59:27;;;;;;;3.43;2.40;;;;;;;;;;5131837;27;20538;-78
2021/04/07 08:01:54;;;;;;;2.83;2.30;;;;;;;;;;5134555;27;20514;-79
2021/04/07 08:04:22;;;;;;;6.77;2.20;;;;;;;;;;5106755;28;20515;-79
2021/04/07 08:06:49;;;;;;;3.30;2.30;;;;;;;;;;5104536;28;20527;-79
2021/04/07 08:09:16;;;;;;;2.80;2.30;;;;;;;;;;5104141;28;20553;-79
2021/04/07 08:11:44;;;;;;;4.50;2.40;;;;;;;;;;5105863;28;20506;-79
2021/04/07 08:14:14;;;;;;;3.50;2.83;;;;;;;;;;5106918;28;20538;-80
2021/04/07 08:16:42;;;;;;;5.90;2.73;;;;;;;;;;5106789;28;20459;-78
2021/04/07 08:19:10;;;;;;;4.23;2.70;;;;;;;;;;5108570;28;20443;-78
2021/04/07 08:21:38;;;;;;;2.73;2.07;;;;;;;;;;5105849;28;20515;-79
2021/04/07 08:24:05;;;;;;;3.20;2.40;;;;;;;;;;5105770;28;20497;-78
2021/04/07 08:26:36;;;;;;;2.70;2.20;;;;;;;;;;5118056;28;20477;-78
2021/04/07 08:29:04;;;;;;;3.87;2.77;;;;;;;;;;5118048;28;20558;-78
2021/04/07 08:31:32;;;;;;;3.60;2.13;;;;;;;;;;5117917;28;20886;-78
2021/04/07 08:34:00;;;;;;;5.03;2.40;;;;;;;;;;5118336;28;20443;-82
2021/04/07 08:36:28;;;;;;;4.30;2.20;;;;;;;;;;5108263;28;20473;-77
2021/04/07 08:39:03;;;;;;;2.67;2.47;;;;;;;;;;5103221;28;20516;-77
2021/04/07 08:41:30;;;;;;;3.30;2.90;;;;;;;;;;5115694;28;20529;-78
2021/04/07 08:43:57;;;;;;;2.70;2.30;;;;;;;;;;5118122;28;20502;-77
2021/04/07 08:46:25;;;;;;;2.83;2.17;;;;;;;;;;5117748;28;20537;-77
2021/04/07 08:48:53;;;;;;;3.80;2.63;;;;;;;;;;5104733;28;20470;-77
2021/04/07 08:51:23;;;;;;;3.10;2.50;;;;;;;;;;5118082;28;20483;-78
2021/04/07 08:53:55;;;;;;;7.40;3.10;;;;;;;;;;5117986;28;20446;-77
2021/04/07 08:56:25;;;;;;;3.40;2.63;;;;;;;;;;5118025;28;20443;-78
2021/04/07 08:58:53;;;;;;;4.50;2.60;;;;;;;;;;5118089;27;20546;-78
2021/04/07 09:01:24;;;;;;;2.77;2.20;;;;;;;;;;5117811;28;20468;-77
2021/04/07 09:03:51;;;;;;;4.63;2.57;;;;;;;;;;5117947;28;20526;-76
2021/04/07 09:06:25;;;;;;;2.70;2.07;;;;;;;;;;5117762;28;20993;-76
2021/04/07 09:08:53;;;;;;;8.57;5.00;;;;;;;;;;5113958;28;20518;-74
2021/04/07 09:11:30;;;;;;;12.30;5.90;;;;;;;;;;5103316;28;20481;-77
2021/04/07 09:14:00;;;;;;;7.90;4.10;;;;;;;;;;5106597;28;20780;-75
2021/04/07 09:16:35;;;;;;;13.00;5.83;;;;;;;;;;5107317;28;20941;-75
2021/04/07 09:19:29;;;;;;;12.20;5.77;;;;;;;;;;5107721;28;20919;-77
2021/04/07 09:21:58;;;;;;;3.87;2.77;;;;;;;;;;5107504;27;20525;-76
2021/04/07 09:24:27;;;;;;;5.80;3.00;;;;;;;;;;5121435;28;20478;-77
2021/04/07 09:26:56;;;;;;;5.23;2.80;;;;;;;;;;5121516;27;20454;-77
2021/04/07 09:29:23;;;;;;;2.57;2.23;;;;;;;;;;5107917;28;20510;-77
2021/04/07 09:31:51;;;;;;;2.53;2.33;;;;;;;;;;5111969;28;20515;-76
2021/04/07 09:34:18;;;;;;;2.77;2.10;;;;;;;;;;5108838;28;20924;-76
2021/04/07 09:36:48;;;;;;;6.20;3.03;;;;;;;;;;5109312;28;20431;-76
2021/04/07 09:39:16;;;;;;;5.37;2.20;;;;;;;;;;5108370;28;20440;-76
2021/04/07 09:41:44;;;;;;;2.30;1.80;;;;;;;;;;5109621;28;20499;-76
2021/04/07 09:44:12;;;;;;;2.37;2.07;;;;;;;;;;5106597;28;20478;-76
2021/04/07 09:46:39;;;;;;;3.70;2.53;;;;;;;;;;5111022;28;20534;-77
2021/04/07 09:49:08;;;;;;;6.47;2.00;;;;;;;;;;5108575;28;20431;-77
2021/04/07 09:51:36;;;;;;;2.53;2.20;;;;;;;;;;5108650;28;20929;-77
2021/04/07 09:54:13;;;;;;;4.03;2.40;;;;;;;;;;5121296;28;20450;-77
2021/04/07 09:56:48;;;;;;;5.00;2.00;;;;;;;;;;5121032;28;20469;-77
2021/04/07 09:59:15;;;;;;;3.33;2.40;;;;;;;;;;5121253;28;20530;-76
2021/04/07 10:01:43;;;;;;;4.80;2.03;;;;;;;;;;5120778;28;20518;-78
2021/04/07 10:04:10;;;;;;;2.07;1.93;;;;;;;;;;5121226;28;20483;-77
2021/04/07 10:06:38;;;;;;;3.97;2.20;;;;;;;;;;5120903;28;20453;-76
2021/04/07 10:09:06;;;;;;;5.40;2.27;;;;;;;;;;5120724;28;20447;-76
2021/04/07 10:11:36;;;;;;;4.13;1.97;;;;;;;;;;5120725;28;20510;-77
2021/04/07 10:14:04;;;;;;;4.40;2.30;;;;;;;;;;5120700;28;20439;-75
2021/04/07 10:16:35;;;;;;;2.23;2.13;;;;;;;;;;5120514;27;20470;-77
2021/04/07 10:19:05;;;;;;;3.93;2.00;;;;;;;;;;5120617;28;20484;-78
2021/04/07 10:21:32;;;;;;;2.83;1.87;;;;;;;;;;5120951;28;20521;-78
2021/04/07 10:24:00;;;;;;;2.67;2.03;;;;;;;;;;5119589;28;20557;-78
2021/04/07 10:26:27;;;;;;;3.07;2.00;;;;;;;;;;5120228;28;21041;-77
2021/04/07 10:28:55;;;;;;;1.50;1.40;;;;;;;;;;5120411;28;20442;-78
2021/04/07 10:31:23;;;;;;;1.80;1.70;;;;;;;;;;5119889;28;20911;-76
2021/04/07 10:34:02;;;;;;;4.77;2.13;;;;;;;;;;5120482;28;20449;-76
2021/04/07 10:36:29;;;;;;;2.70;1.90;;;;;;;;;;5111938;28;20446;-75
2021/04/07 10:38:57;;;;;;;6.47;1.80;;;;;;;;;;5120403;28;20466;-77
2021/04/07 10:41:25;;;;;;;3.00;1.90;;;;;;;;;;5120011;28;20613;-77
2021/04/07 10:43:52;;;;;;;3.07;1.83;;;;;;;;;;5120156;28;20478;-75
2021/04/07 10:46:29;;;;;;;2.10;1.90;;;;;;;;;;5119680;28;20470;-77
2021/04/07 10:48:57;;;;;;;1.63;1.53;;;;;;;;;;5107333;28;20238;-77
2021/04/07 10:51:25;;;;;;;3.23;2.10;;;;;;;;;;5120076;28;20565;-75
2021/04/07 10:53:55;;;;;;;6.90;4.50;;;;;;;;;;5120122;28;20438;-77
2021/04/07 10:56:23;;;;;;;2.47;2.10;;;;;;;;;;5119623;28;20850;-77
2021/04/07 10:58:53;;;;;;;4.33;2.00;;;;;;;;;;5107540;28;20523;-75
2021/04/07 11:01:26;;;;;;;6.07;2.00;;;;;;;;;;5107077;28;20470;-75
2021/04/07 11:04:10;;;;;;;2.03;1.93;;;;;;;;;;5107990;28;20493;-79
2021/04/07 11:06:37;;;;;;;2.77;2.00;;;;;;;;;;5105347;28;20857;-77
2021/04/07 11:09:04;;;;;;;1.60;1.50;;;;;;;;;;5104433;28;20511;-76
2021/04/07 11:11:32;;;;;;;1.60;1.50;;;;;;;;;;5114930;27;20482;-76
2021/04/07 11:13:59;;;;;;;2.33;1.93;;;;;;;;;;5140092;27;20445;-75
2021/04/07 11:16:32;;;;;;;3.17;1.70;;;;;;;;;;5139714;27;20528;-77
2021/04/07 11:18:59;;;;;;;2.83;1.90;;;;;;;;;;5110505;28;20441;-78
2021/04/07 11:21:27;;;;;;;1.93;1.70;;;;;;;;;;5106246;28;20455;-75
2021/04/07 11:23:55;;;;;;;4.13;1.47;;;;;;;;;;5106150;28;20473;-76
2021/04/07 11:26:22;;;;;;;2.40;1.50;;;;;;;;;;5104311;28;20332;-76
2021/04/07 11:28:49;;;;;;;3.30;1.47;;;;;;;;;;5104512;28;20198;-76
2021/04/07 11:31:21;;;;;;;2.17;1.67;;;;;;;;;;5105820;28;20217;-76
2021/04/07 11:33:50;;;;;;;3.10;1.33;;;;;;;;;;5105914;28;20566;-76
2021/04/07 11:36:38;;;;;;;1.43;1.33;;;;;;;;;;5106428;28;20557;-76
2021/04/07 11:39:34;;;;;;;1.73;1.37;;;;;;;;;;5107025;28;20432;-76
2021/04/07 11:42:10;;;;;;;2.93;1.67;;;;;;;;;;5103250;28;20431;-76
2021/04/07 11:44:37;;;;;;;4.67;1.83;;;;;;;;;;5107141;28;20878;-75
2021/04/07 11:47:04;;;;;;;4.53;1.90;;;;;;;;;;5107508;28;20496;-75
2021/04/07 11:49:31;;;;;;;4.53;1.83;;;;;;;;;;5106649;28;20848;-75
2021/04/07 11:51:58;;;;;;;3.17;2.07;;;;;;;;;;5105983;28;20432;-76
2021/04/07 11:54:26;;;;;;;2.40;1.47;;;;;;;;;;5106578;28;20498;-75
2021/04/07 11:56:53;;;;;;;1.80;1.30;;;;;;;;;;5106154;28;20446;-75
2021/04/07 11:59:21;;;;;;;1.60;1.50;;;;;;;;;;5105601;28;20515;-75
2021/04/07 12:01:49;;;;;;;3.80;1.60;;;;;;;;;;5104275;28;20456;-75
2021/04/07 12:04:16;;;;;;;2.87;1.50;;;;;;;;;;5106192;28;20491;-75
2021/04/07 12:06:43;;;;;;;1.57;1.47;;;;;;;;;;5104283;28;20503;-75
2021/04/07 12:09:10;;;;;;;3.40;1.37;;;;;;;;;;5106926;28;20474;-75
2021/04/07 12:11:38;;;;;;;6.57;1.70;;;;;;;;;;5104760;28;20562;-75
2021/04/07 12:14:07;;;;;;;2.77;1.63;;;;;;;;;;5106583;28;20499;-75
2021/04/07 12:16:34;;;;;;;5.30;1.60;;;;;;;;;;5104390;28;20257;-75
2021/04/07 12:19:01;;;;;;;2.27;1.50;;;;;;;;;;5107183;28;20444;-75
2021/04/07 12:21:28;;;;;;;3.63;1.57;;;;;;;;;;5102933;28;20526;-74
2021/04/07 12:23:55;;;;;;;6.10;1.80;;;;;;;;;;5104993;28;20545;-75
2021/04/07 12:26:22;;;;;;;2.53;1.43;;;;;;;;;;5104235;28;20531;-75
2021/04/07 12:28:51;;;;;;;5.80;1.73;;;;;;;;;;5105452;28;20442;-75
2021/04/07 12:31:20;;;;;;;3.43;1.53;;;;;;;;;;5103325;28;20479;-75
2021/04/07 12:33:52;;;;;;;1.77;1.40;;;;;;;;;;5103110;28;20205;-75
2021/04/07 12:36:23;;;;;;;3.20;1.70;;;;;;;;;;5105467;28;20298;-75
2021/04/07 12:38:50;;;;;;;2.90;1.40;;;;;;;;;;5113995;28;20201;-76
2021/04/07 12:41:22;;;;;;;2.53;1.67;;;;;;;;;;5117886;28;20235;-76
2021/04/07 12:43:49;;;;;;;3.43;1.80;;;;;;;;;;5117799;28;20568;-76
2021/04/07 12:46:17;;;;;;;2.93;1.50;;;;;;;;;;5117489;28;20225;-76
2021/04/07 12:48:48;;;;;;;2.77;1.77;;;;;;;;;;5122239;28;20450;-76
2021/04/07 12:51:15;;;;;;;1.77;1.67;;;;;;;;;;5122540;28;20230;-76
2021/04/07 12:53:42;;;;;;;1.43;1.30;;;;;;;;;;5120169;28;20464;-76
2021/04/07 12:56:13;;;;;;;1.83;1.20;;;;;;;;;;5117230;27;20256;-76
2021/04/07 12:58:41;;;;;;;1.53;1.27;;;;;;;;;;5129808;27;20207;-77
2021/04/07 13:01:08;;;;;;;1.60;1.50;;;;;;;;;;5112019;27;20218;-77
2021/04/07 13:03:36;;;;;;;4.93;1.37;;;;;;;;;;5140385;27;20473;-77
2021/04/07 13:06:04;;;;;;;1.30;1.20;;;;;;;;;;5121805;28;20231;-76
2021/04/07 13:08:31;;;;;;;5.03;1.70;;;;;;;;;;5121738;28;20208;-76
2021/04/07 13:10:58;;;;;;;2.30;1.83;;;;;;;;;;5118032;28;20303;-76
2021/04/07 13:13:25;;;;;;;2.90;1.80;;;;;;;;;;5111463;28;20280;-76
2021/04/07 13:15:52;;;;;;;2.50;1.57;;;;;;;;;;5121155;28;20309;-76
2021/04/07 13:18:20;;;;;;;3.80;1.37;;;;;;;;;;5119888;28;20728;-76
2021/04/07 13:20:48;;;;;;;3.17;1.63;;;;;;;;;;5121406;28;20201;-75
2021/04/07 13:23:15;;;;;;;1.60;1.50;;;;;;;;;;5121047;28;20260;-76
2021/04/07 13:25:42;;;;;;;1.97;1.83;;;;;;;;;;5120861;28;20225;-76
2021/04/07 13:28:23;;;;;;;1.90;1.70;;;;;;;;;;5114125;28;20206;-76
2021/04/07 13:30:52;;;;;;;3.03;1.50;;;;;;;;;;5112528;28;20478;-76
2021/04/07 13:33:23;;;;;;;2.63;1.87;;;;;;;;;;5120596;28;20517;-76
2021/04/07 13:35:53;;;;;;;1.23;1.20;;;;;;;;;;5120785;28;20308;-76
2021/04/07 13:38:23;;;;;;;3.80;1.40;;;;;;;;;;5120951;28;20287;-76
2021/04/07 13:41:05;;;;;;;3.03;1.67;;;;;;;;;;5120950;28;20211;-77
2021/04/07 13:43:32;;;;;;;1.80;1.33;;;;;;;;;;5120666;28;20295;-77
2021/04/07 13:45:59;;;;;;;1.17;1.07;;;;;;;;;;5120416;28;20266;-77
2021/04/07 13:48:28;;;;;;;3.00;1.50;;;;;;;;;;5118282;28;20227;-77
2021/04/07 13:50:56;;;;;;;3.23;1.63;;;;;;;;;;5120611;27;20648;-77
2021/04/07 13:53:28;;;;;;;1.23;1.13;;;;;;;;;;5120465;28;20287;-77
2021/04/07 13:55:58;;;;;;;1.67;1.47;;;;;;;;;;5120591;28;20234;-77
2021/04/07 13:58:25;;;;;;;2.17;1.73;;;;;;;;;;5118181;28;20228;-77
2021/04/07 14:00:53;;;;;;;3.20;1.20;;;;;;;;;;5120284;28;20276;-77
2021/04/07 14:03:21;;;;;;;1.60;1.50;;;;;;;;;;5120291;28;20227;-76
2021/04/07 14:05:48;;;;;;;1.70;1.60;;;;;;;;;;5131309;27;20652;-76
2021/04/07 14:08:17;;;;;;;2.97;1.50;;;;;;;;;;5140977;27;20228;-77
2021/04/07 14:10:46;;;;;;;3.07;2.17;;;;;;;;;;5140974;27;20259;-77
2021/04/07 14:13:13;;;;;;;2.60;1.47;;;;;;;;;;5129554;27;20741;-77
2021/04/07 14:15:41;;;;;;;2.80;1.60;;;;;;;;;;5112605;27;20222;-76
2021/04/07 14:18:08;;;;;;;2.13;1.80;;;;;;;;;;5122784;27;20232;-77
2021/04/07 14:20:36;;;;;;;2.27;1.50;;;;;;;;;;5115615;27;20221;-77
2021/04/07 14:23:03;;;;;;;1.23;1.10;;;;;;;;;;5139716;27;20215;-74
2021/04/07 14:25:32;;;;;;;4.03;1.80;;;;;;;;;;5133076;27;20263;-76
2021/04/07 14:28:00;;;;;;;2.30;1.60;;;;;;;;;;5118934;27;20204;-75
2021/04/07 14:30:28;;;;;;;1.50;1.40;;;;;;;;;;5117004;28;20656;-74
2021/04/07 14:32:55;;;;;;;2.23;1.60;;;;;;;;;;5120128;27;20209;-74
2021/04/07 14:35:22;;;;;;;4.00;1.40;;;;;;;;;;5120321;27;20270;-74
2021/04/07 14:37:49;;;;;;;1.30;1.20;;;;;;;;;;5118070;28;20264;-74
2021/04/07 14:40:17;;;;;;;2.60;1.60;;;;;;;;;;5120479;27;20223;-75
2021/04/07 14:42:45;;;;;;;3.23;1.27;;;;;;;;;;5119824;28;20264;-75
2021/04/07 14:45:12;;;;;;;3.30;2.90;;;;;;;;;;5119159;28;20307;-74
2021/04/07 14:47:42;;;;;;;3.00;1.70;;;;;;;;;;5118888;28;20205;-74
2021/04/07 14:50:15;;;;;;;2.40;1.43;;;;;;;;;;5119280;28;20542;-74